sensor_id;sensor_type;location;lat;lon;timestamp;temperature;humidity
4787;DHT22;30023;48.832;9.422;2022-07-04T00:01:03;20.10;1.00
4787;DHT22;30023;48.832;9.422;2022-07-04T00:03:05;20.10;1.00
4787;DHT22;30023;48.832;9.422;2022-07-04T00:05:08;20.10;1.00
4787;DHT22;30023;48.832;9.422;2022-07-04T00:07:12;20.10;1.00
4787;DHT22;30023;48.832;9.422;2022-07-04T00:09:14;20.00;1.00
4787;DHT22;30023;48.832;9.422;2022-07-04T00:11:15;19.90;1.00
4787;DHT22;30023;48.832;9.422;2022-07-04T00:13:17;19.80;1.00
4787;DHT22;30023;48.832;9.422;2022-07-04T00:15:19;19.70;1.00
4787;DHT22;30023;48.832;9.422;2022-07-04T00:17:21;19.60;1.00
4787;DHT22;30023;48.832;9.422;2022-07-04T00:19:22;19.50;1.00
4787;DHT22;30023;48.832;9.422;2022-07-04T00:21:25;19.30;1.00
4787;DHT22;30023;48.832;9.422;2022-07-04T00:23:26;19.20;1.00
4787;DHT22;30023;48.832;9.422;2022-07-04T00:25:28;19.10;1.00
4787;DHT22;30023;48.832;9.422;2022-07-04T00:27:30;19.00;1.00
4787;DHT22;30023;48.832;9.422;2022-07-04T00:29:32;19.00;1.40
4787;DHT22;30023;48.832;9.422;2022-07-04T00:31:34;18.90;6.30
4787;DHT22;30023;48.832;9.422;2022-07-04T00:33:37;18.90;6.00
4787;DHT22;30023;48.832;9.422;2022-07-04T00:35:39;18.90;11.60
4787;DHT22;30023;48.832;9.422;2022-07-04T00:37:41;18.80;16.70
4787;DHT22;30023;48.832;9.422;2022-07-04T00:39:42;18.80;14.40
4787;DHT22;30023;48.832;9.422;2022-07-04T00:41:44;18.80;15.00
4787;DHT22;30023;48.832;9.422;2022-07-04T00:46:13;18.70;18.20
4787;DHT22;30023;48.832;9.422;2022-07-04T00:48:15;18.70;18.40
4787;DHT22;30023;48.832;9.422;2022-07-04T00:50:20;18.70;11.50
4787;DHT22;30023;48.832;9.422;2022-07-04T00:52:23;18.60;21.70
4787;DHT22;30023;48.832;9.422;2022-07-04T00:54:27;18.70;13.20
4787;DHT22;30023;48.832;9.422;2022-07-04T00:56:29;18.70;4.80
4787;DHT22;30023;48.832;9.422;2022-07-04T00:58:32;18.70;11.80
4787;DHT22;30023;48.832;9.422;2022-07-04T01:00:34;18.70;4.00
4787;DHT22;30023;48.832;9.422;2022-07-04T01:02:36;18.70;8.60
4787;DHT22;30023;48.832;9.422;2022-07-04T01:04:38;18.60;9.60
4787;DHT22;30023;48.832;9.422;2022-07-04T01:06:41;18.60;11.40
4787;DHT22;30023;48.832;9.422;2022-07-04T01:08:43;18.60;11.30
4787;DHT22;30023;48.832;9.422;2022-07-04T01:10:46;18.60;14.20
4787;DHT22;30023;48.832;9.422;2022-07-04T01:12:48;18.50;24.60
4787;DHT22;30023;48.832;9.422;2022-07-04T01:14:50;18.50;23.60
4787;DHT22;30023;48.832;9.422;2022-07-04T01:16:51;18.40;29.40
4787;DHT22;30023;48.832;9.422;2022-07-04T01:18:54;18.40;35.60
4787;DHT22;30023;48.832;9.422;2022-07-04T01:20:56;18.30;42.30
4787;DHT22;30023;48.832;9.422;2022-07-04T01:22:58;18.30;51.70
4787;DHT22;30023;48.832;9.422;2022-07-04T01:25:00;18.20;52.90
4787;DHT22;30023;48.832;9.422;2022-07-04T01:27:02;18.20;58.40
4787;DHT22;30023;48.832;9.422;2022-07-04T01:29:04;18.10;64.80
4787;DHT22;30023;48.832;9.422;2022-07-04T01:31:06;18.10;71.00
4787;DHT22;30023;48.832;9.422;2022-07-04T01:33:08;18.10;74.80
4787;DHT22;30023;48.832;9.422;2022-07-04T01:35:10;18.00;77.20
4787;DHT22;30023;48.832;9.422;2022-07-04T01:37:11;18.00;80.50
4787;DHT22;30023;48.832;9.422;2022-07-04T01:39:13;18.00;78.20
4787;DHT22;30023;48.832;9.422;2022-07-04T01:41:15;18.00;81.60
4787;DHT22;30023;48.832;9.422;2022-07-04T01:43:17;18.00;82.20
4787;DHT22;30023;48.832;9.422;2022-07-04T01:45:18;18.00;74.30
4787;DHT22;30023;48.832;9.422;2022-07-04T01:47:20;18.00;81.10
4787;DHT22;30023;48.832;9.422;2022-07-04T01:49:22;18.00;80.30
4787;DHT22;30023;48.832;9.422;2022-07-04T01:51:24;18.00;75.40
4787;DHT22;30023;48.832;9.422;2022-07-04T01:53:25;18.00;80.80
4787;DHT22;30023;48.832;9.422;2022-07-04T01:55:28;18.00;76.10
4787;DHT22;30023;48.832;9.422;2022-07-04T01:57:30;18.00;80.60
4787;DHT22;30023;48.832;9.422;2022-07-04T01:59:31;18.00;88.70
4787;DHT22;30023;48.832;9.422;2022-07-04T02:01:53;18.00;90.40
4787;DHT22;30023;48.832;9.422;2022-07-04T02:04:00;18.00;85.40
4787;DHT22;30023;48.832;9.422;2022-07-04T02:06:02;17.90;91.10
4787;DHT22;30023;48.832;9.422;2022-07-04T02:08:05;18.00;89.20
4787;DHT22;30023;48.832;9.422;2022-07-04T02:10:07;18.00;85.70
4787;DHT22;30023;48.832;9.422;2022-07-04T02:12:09;18.00;87.80
4787;DHT22;30023;48.832;9.422;2022-07-04T02:14:30;17.90;95.50
4787;DHT22;30023;48.832;9.422;2022-07-04T02:16:32;17.90;94.20
4787;DHT22;30023;48.832;9.422;2022-07-04T02:18:33;17.80;97.10
4787;DHT22;30023;48.832;9.422;2022-07-04T02:20:36;17.80;96.80
4787;DHT22;30023;48.832;9.422;2022-07-04T02:22:38;17.80;97.70
4787;DHT22;30023;48.832;9.422;2022-07-04T02:24:40;17.70;98.70
4787;DHT22;30023;48.832;9.422;2022-07-04T02:26:42;17.70;98.20
4787;DHT22;30023;48.832;9.422;2022-07-04T02:28:43;17.70;99.90
4787;DHT22;30023;48.832;9.422;2022-07-04T02:30:47;17.60;99.90
4787;DHT22;30023;48.832;9.422;2022-07-04T02:32:48;17.60;99.90
4787;DHT22;30023;48.832;9.422;2022-07-04T02:34:50;17.50;99.90
4787;DHT22;30023;48.832;9.422;2022-07-04T02:36:52;17.50;99.90
4787;DHT22;30023;48.832;9.422;2022-07-04T02:38:54;17.40;99.90
4787;DHT22;30023;48.832;9.422;2022-07-04T02:40:56;17.40;99.90
4787;DHT22;30023;48.832;9.422;2022-07-04T02:42:58;17.30;99.90
4787;DHT22;30023;48.832;9.422;2022-07-04T02:45:00;17.20;99.90
4787;DHT22;30023;48.832;9.422;2022-07-04T02:47:01;17.20;99.90
4787;DHT22;30023;48.832;9.422;2022-07-04T02:49:04;17.10;99.90
4787;DHT22;30023;48.832;9.422;2022-07-04T02:51:06;17.10;99.90
4787;DHT22;30023;48.832;9.422;2022-07-04T02:53:07;17.00;99.90
4787;DHT22;30023;48.832;9.422;2022-07-04T02:55:09;16.90;99.90
4787;DHT22;30023;48.832;9.422;2022-07-04T02:57:11;16.90;99.90
4787;DHT22;30023;48.832;9.422;2022-07-04T02:59:13;16.90;99.90
4787;DHT22;30023;48.832;9.422;2022-07-04T03:01:14;16.80;99.90
4787;DHT22;30023;48.832;9.422;2022-07-04T03:03:16;16.80;99.90
4787;DHT22;30023;48.832;9.422;2022-07-04T03:05:18;16.70;99.90
4787;DHT22;30023;48.832;9.422;2022-07-04T03:07:20;16.60;99.90
4787;DHT22;30023;48.832;9.422;2022-07-04T03:09:22;16.60;99.90
4787;DHT22;30023;48.832;9.422;2022-07-04T03:11:24;16.50;99.90
4787;DHT22;30023;48.832;9.422;2022-07-04T03:13:25;16.50;99.90
4787;DHT22;30023;48.832;9.422;2022-07-04T03:15:27;16.40;99.90
4787;DHT22;30023;48.832;9.422;2022-07-04T03:17:29;16.40;99.90
4787;DHT22;30023;48.832;9.422;2022-07-04T03:19:31;16.40;99.90
4787;DHT22;30023;48.832;9.422;2022-07-04T03:21:34;16.30;99.90
4787;DHT22;30023;48.832;9.422;2022-07-04T03:23:36;16.30;99.90
4787;DHT22;30023;48.832;9.422;2022-07-04T03:25:37;16.30;99.90
4787;DHT22;30023;48.832;9.422;2022-07-04T03:27:39;16.20;99.90
4787;DHT22;30023;48.832;9.422;2022-07-04T03:29:41;16.30;99.90
4787;DHT22;30023;48.832;9.422;2022-07-04T03:31:43;16.20;99.90
4787;DHT22;30023;48.832;9.422;2022-07-04T03:33:45;16.20;99.90
4787;DHT22;30023;48.832;9.422;2022-07-04T03:35:47;16.20;99.90
4787;DHT22;30023;48.832;9.422;2022-07-04T03:37:49;16.20;99.90
4787;DHT22;30023;48.832;9.422;2022-07-04T03:39:50;16.10;99.90
4787;DHT22;30023;48.832;9.422;2022-07-04T03:41:53;16.10;99.90
4787;DHT22;30023;48.832;9.422;2022-07-04T03:43:54;16.10;99.90
4787;DHT22;30023;48.832;9.422;2022-07-04T03:45:56;16.00;99.90
4787;DHT22;30023;48.832;9.422;2022-07-04T03:47:58;16.00;99.90
4787;DHT22;30023;48.832;9.422;2022-07-04T03:50:01;16.00;99.90
4787;DHT22;30023;48.832;9.422;2022-07-04T03:52:03;15.90;99.90
4787;DHT22;30023;48.832;9.422;2022-07-04T03:54:05;15.90;99.90
4787;DHT22;30023;48.832;9.422;2022-07-04T03:56:07;15.90;99.90
4787;DHT22;30023;48.832;9.422;2022-07-04T03:58:11;15.80;99.90
4787;DHT22;30023;48.832;9.422;2022-07-04T04:00:13;15.80;99.90
4787;DHT22;30023;48.832;9.422;2022-07-04T04:02:15;15.80;99.90
4787;DHT22;30023;48.832;9.422;2022-07-04T04:04:17;15.80;99.90
4787;DHT22;30023;48.832;9.422;2022-07-04T04:06:37;15.90;99.90
4787;DHT22;30023;48.832;9.422;2022-07-04T04:08:39;15.90;99.90
4787;DHT22;30023;48.832;9.422;2022-07-04T04:10:41;15.90;99.90
4787;DHT22;30023;48.832;9.422;2022-07-04T04:12:44;15.90;99.90
4787;DHT22;30023;48.832;9.422;2022-07-04T04:14:46;16.00;99.90
4787;DHT22;30023;48.832;9.422;2022-07-04T04:16:48;16.00;99.90
4787;DHT22;30023;48.832;9.422;2022-07-04T04:18:50;16.00;99.90
4787;DHT22;30023;48.832;9.422;2022-07-04T04:20:52;16.00;99.90
4787;DHT22;30023;48.832;9.422;2022-07-04T04:22:54;16.10;99.90
4787;DHT22;30023;48.832;9.422;2022-07-04T04:24:57;16.10;99.90
4787;DHT22;30023;48.832;9.422;2022-07-04T04:26:58;16.10;99.90
4787;DHT22;30023;48.832;9.422;2022-07-04T04:29:00;16.10;99.90
4787;DHT22;30023;48.832;9.422;2022-07-04T04:31:02;16.10;99.90
4787;DHT22;30023;48.832;9.422;2022-07-04T04:33:04;16.00;99.90
4787;DHT22;30023;48.832;9.422;2022-07-04T04:35:06;16.10;99.90
4787;DHT22;30023;48.832;9.422;2022-07-04T04:37:08;16.10;99.90
4787;DHT22;30023;48.832;9.422;2022-07-04T04:39:10;16.10;99.90
4787;DHT22;30023;48.832;9.422;2022-07-04T04:41:11;16.10;99.90
4787;DHT22;30023;48.832;9.422;2022-07-04T04:43:13;16.10;99.90
4787;DHT22;30023;48.832;9.422;2022-07-04T04:45:15;16.10;99.90
4787;DHT22;30023;48.832;9.422;2022-07-04T04:47:17;16.20;99.90
4787;DHT22;30023;48.832;9.422;2022-07-04T04:49:19;16.20;99.90
4787;DHT22;30023;48.832;9.422;2022-07-04T04:51:20;16.20;99.90
4787;DHT22;30023;48.832;9.422;2022-07-04T04:53:22;16.20;99.90
4787;DHT22;30023;48.832;9.422;2022-07-04T04:55:27;16.30;99.90
4787;DHT22;30023;48.832;9.422;2022-07-04T04:57:29;16.30;99.90
4787;DHT22;30023;48.832;9.422;2022-07-04T04:59:31;16.40;99.90
4787;DHT22;30023;48.832;9.422;2022-07-04T05:01:33;16.40;99.90
4787;DHT22;30023;48.832;9.422;2022-07-04T05:03:42;16.40;99.90
4787;DHT22;30023;48.832;9.422;2022-07-04T05:05:45;16.40;99.90
4787;DHT22;30023;48.832;9.422;2022-07-04T05:07:51;16.50;99.90
4787;DHT22;30023;48.832;9.422;2022-07-04T05:09:53;16.50;99.90
4787;DHT22;30023;48.832;9.422;2022-07-04T05:11:59;16.70;99.90
4787;DHT22;30023;48.832;9.422;2022-07-04T05:14:02;16.70;99.90
4787;DHT22;30023;48.832;9.422;2022-07-04T05:16:04;16.80;99.90
4787;DHT22;30023;48.832;9.422;2022-07-04T05:18:05;16.90;99.90
4787;DHT22;30023;48.832;9.422;2022-07-04T05:20:08;16.90;99.90
4787;DHT22;30023;48.832;9.422;2022-07-04T05:22:09;16.90;99.90
4787;DHT22;30023;48.832;9.422;2022-07-04T05:24:12;16.90;99.90
4787;DHT22;30023;48.832;9.422;2022-07-04T05:26:13;16.90;99.90
4787;DHT22;30023;48.832;9.422;2022-07-04T05:28:15;16.80;99.90
4787;DHT22;30023;48.832;9.422;2022-07-04T05:30:17;16.80;99.90
4787;DHT22;30023;48.832;9.422;2022-07-04T05:32:19;16.70;99.90
4787;DHT22;30023;48.832;9.422;2022-07-04T05:34:21;16.70;99.90
4787;DHT22;30023;48.832;9.422;2022-07-04T05:36:24;16.70;99.90
4787;DHT22;30023;48.832;9.422;2022-07-04T05:38:30;16.60;99.90
4787;DHT22;30023;48.832;9.422;2022-07-04T05:40:32;16.60;99.90
4787;DHT22;30023;48.832;9.422;2022-07-04T05:42:36;16.60;99.90
4787;DHT22;30023;48.832;9.422;2022-07-04T05:44:38;16.60;99.90
4787;DHT22;30023;48.832;9.422;2022-07-04T05:46:40;16.60;99.90
4787;DHT22;30023;48.832;9.422;2022-07-04T05:48:42;16.70;99.90
4787;DHT22;30023;48.832;9.422;2022-07-04T05:50:44;16.80;99.90
4787;DHT22;30023;48.832;9.422;2022-07-04T05:52:45;16.90;99.90
4787;DHT22;30023;48.832;9.422;2022-07-04T05:54:47;17.10;99.90
4787;DHT22;30023;48.832;9.422;2022-07-04T05:56:49;17.30;99.90
4787;DHT22;30023;48.832;9.422;2022-07-04T05:58:51;17.60;99.90
4787;DHT22;30023;48.832;9.422;2022-07-04T06:00:54;17.80;94.60
4787;DHT22;30023;48.832;9.422;2022-07-04T06:02:57;17.90;84.90
4787;DHT22;30023;48.832;9.422;2022-07-04T06:04:58;18.20;82.00
4787;DHT22;30023;48.832;9.422;2022-07-04T06:07:00;18.40;87.70
4787;DHT22;30023;48.832;9.422;2022-07-04T06:09:03;18.70;26.70
4787;DHT22;30023;48.832;9.422;2022-07-04T06:11:05;18.80;1.00
4787;DHT22;30023;48.832;9.422;2022-07-04T06:13:06;19.10;1.00
4787;DHT22;30023;48.832;9.422;2022-07-04T06:15:10;19.30;1.00
4787;DHT22;30023;48.832;9.422;2022-07-04T06:17:12;19.60;1.00
4787;DHT22;30023;48.832;9.422;2022-07-04T06:19:14;19.80;1.00
4787;DHT22;30023;48.832;9.422;2022-07-04T06:21:16;20.00;1.00
4787;DHT22;30023;48.832;9.422;2022-07-04T06:23:17;20.00;1.00
4787;DHT22;30023;48.832;9.422;2022-07-04T06:25:20;20.20;1.00
4787;DHT22;30023;48.832;9.422;2022-07-04T06:27:22;20.30;1.00
4787;DHT22;30023;48.832;9.422;2022-07-04T06:29:24;20.30;1.00
4787;DHT22;30023;48.832;9.422;2022-07-04T06:31:26;20.40;1.00
4787;DHT22;30023;48.832;9.422;2022-07-04T06:33:28;20.40;1.00
4787;DHT22;30023;48.832;9.422;2022-07-04T06:35:30;20.40;1.00
4787;DHT22;30023;48.832;9.422;2022-07-04T06:37:47;20.40;1.00
4787;DHT22;30023;48.832;9.422;2022-07-04T06:39:49;20.50;1.00
4787;DHT22;30023;48.832;9.422;2022-07-04T06:41:51;20.50;1.00
4787;DHT22;30023;48.832;9.422;2022-07-04T06:43:53;20.50;1.00
4787;DHT22;30023;48.832;9.422;2022-07-04T06:45:54;20.50;1.00
4787;DHT22;30023;48.832;9.422;2022-07-04T06:47:57;20.50;1.00
4787;DHT22;30023;48.832;9.422;2022-07-04T06:49:58;20.80;1.00
4787;DHT22;30023;48.832;9.422;2022-07-04T06:52:20;21.00;1.00
4787;DHT22;30023;48.832;9.422;2022-07-04T06:54:22;21.20;1.00
4787;DHT22;30023;48.832;9.422;2022-07-04T06:56:24;21.40;1.00
4787;DHT22;30023;48.832;9.422;2022-07-04T06:58:26;21.50;1.00
4787;DHT22;30023;48.832;9.422;2022-07-04T07:00:28;21.50;1.00
4787;DHT22;30023;48.832;9.422;2022-07-04T07:02:34;22.00;1.00
4787;DHT22;30023;48.832;9.422;2022-07-04T07:04:36;22.30;1.00
4787;DHT22;30023;48.832;9.422;2022-07-04T07:06:39;22.40;99.90
4787;DHT22;30023;48.832;9.422;2022-07-04T07:08:41;22.50;99.90
4787;DHT22;30023;48.832;9.422;2022-07-04T07:10:42;22.70;2.60
4787;DHT22;30023;48.832;9.422;2022-07-04T07:12:45;22.70;99.90
4787;DHT22;30023;48.832;9.422;2022-07-04T07:14:47;22.50;1.00
4787;DHT22;30023;48.832;9.422;2022-07-04T07:16:49;22.50;99.90
4787;DHT22;30023;48.832;9.422;2022-07-04T07:18:51;22.50;99.90
4787;DHT22;30023;48.832;9.422;2022-07-04T07:20:53;22.40;99.90
4787;DHT22;30023;48.832;9.422;2022-07-04T07:22:55;22.30;1.00
4787;DHT22;30023;48.832;9.422;2022-07-04T07:24:56;22.40;1.00
4787;DHT22;30023;48.832;9.422;2022-07-04T07:26:58;22.70;99.90
4787;DHT22;30023;48.832;9.422;2022-07-04T07:29:00;22.90;1.00
4787;DHT22;30023;48.832;9.422;2022-07-04T07:31:02;23.10;93.60
4787;DHT22;30023;48.832;9.422;2022-07-04T07:33:04;23.30;1.00
4787;DHT22;30023;48.832;9.422;2022-07-04T07:35:06;23.40;1.00
4787;DHT22;30023;48.832;9.422;2022-07-04T07:37:08;23.30;99.90
4787;DHT22;30023;48.832;9.422;2022-07-04T07:39:10;23.20;99.90
4787;DHT22;30023;48.832;9.422;2022-07-04T07:41:12;23.30;99.90
4787;DHT22;30023;48.832;9.422;2022-07-04T07:43:13;23.30;1.00
4787;DHT22;30023;48.832;9.422;2022-07-04T07:45:15;23.30;1.00
4787;DHT22;30023;48.832;9.422;2022-07-04T07:47:17;23.40;99.90
4787;DHT22;30023;48.832;9.422;2022-07-04T07:49:19;23.40;70.90
4787;DHT22;30023;48.832;9.422;2022-07-04T07:51:20;23.30;1.00
4787;DHT22;30023;48.832;9.422;2022-07-04T07:53:22;23.10;1.00
4787;DHT22;30023;48.832;9.422;2022-07-04T07:55:24;23.00;99.90
4787;DHT22;30023;48.832;9.422;2022-07-04T07:57:27;22.60;99.90
4787;DHT22;30023;48.832;9.422;2022-07-04T07:59:28;22.30;99.90
4787;DHT22;30023;48.832;9.422;2022-07-04T08:01:30;22.40;1.00
4787;DHT22;30023;48.832;9.422;2022-07-04T08:03:32;22.40;99.90
4787;DHT22;30023;48.832;9.422;2022-07-04T08:05:52;22.40;1.00
4787;DHT22;30023;48.832;9.422;2022-07-04T08:07:54;22.50;1.00
4787;DHT22;30023;48.832;9.422;2022-07-04T08:09:56;22.80;1.00
4787;DHT22;30023;48.832;9.422;2022-07-04T08:11:58;23.00;99.90
4787;DHT22;30023;48.832;9.422;2022-07-04T08:14:00;23.10;99.90
4787;DHT22;30023;48.832;9.422;2022-07-04T08:16:02;23.20;99.90
4787;DHT22;30023;48.832;9.422;2022-07-04T08:18:04;23.30;99.90
4787;DHT22;30023;48.832;9.422;2022-07-04T08:20:07;23.10;1.00
4787;DHT22;30023;48.832;9.422;2022-07-04T08:22:09;23.10;99.90
4787;DHT22;30023;48.832;9.422;2022-07-04T08:24:16;23.00;92.50
4787;DHT22;30023;48.832;9.422;2022-07-04T08:26:20;22.70;99.90
4787;DHT22;30023;48.832;9.422;2022-07-04T08:28:22;22.90;1.00
4787;DHT22;30023;48.832;9.422;2022-07-04T08:30:24;23.00;1.00
4787;DHT22;30023;48.832;9.422;2022-07-04T08:32:26;23.10;1.00
4787;DHT22;30023;48.832;9.422;2022-07-04T08:34:28;23.20;99.90
4787;DHT22;30023;48.832;9.422;2022-07-04T08:36:30;23.30;99.90
4787;DHT22;30023;48.832;9.422;2022-07-04T08:38:31;23.30;1.00
4787;DHT22;30023;48.832;9.422;2022-07-04T08:40:33;23.30;1.00
4787;DHT22;30023;48.832;9.422;2022-07-04T08:42:39;23.10;99.90
4787;DHT22;30023;48.832;9.422;2022-07-04T08:44:48;23.20;99.90
4787;DHT22;30023;48.832;9.422;2022-07-04T08:46:52;22.90;99.90
4787;DHT22;30023;48.832;9.422;2022-07-04T08:48:57;22.80;99.90
4787;DHT22;30023;48.832;9.422;2022-07-04T08:51:12;22.70;1.00
4787;DHT22;30023;48.832;9.422;2022-07-04T08:53:19;22.70;1.00
4787;DHT22;30023;48.832;9.422;2022-07-04T08:55:22;22.60;99.90
4787;DHT22;30023;48.832;9.422;2022-07-04T08:57:43;22.70;1.00
4787;DHT22;30023;48.832;9.422;2022-07-04T09:00:05;22.80;1.00
4787;DHT22;30023;48.832;9.422;2022-07-04T09:02:07;23.10;1.00
4787;DHT22;30023;48.832;9.422;2022-07-04T09:04:10;23.30;99.90
4787;DHT22;30023;48.832;9.422;2022-07-04T09:06:13;23.60;99.90
4787;DHT22;30023;48.832;9.422;2022-07-04T09:08:17;23.80;99.90
4787;DHT22;30023;48.832;9.422;2022-07-04T09:10:18;24.00;16.30
4787;DHT22;30023;48.832;9.422;2022-07-04T09:12:21;24.40;1.00
4787;DHT22;30023;48.832;9.422;2022-07-04T09:14:22;24.30;1.00
4787;DHT22;30023;48.832;9.422;2022-07-04T09:16:24;24.30;1.00
4787;DHT22;30023;48.832;9.422;2022-07-04T09:18:27;24.00;1.00
4787;DHT22;30023;48.832;9.422;2022-07-04T09:20:31;24.20;1.00
4787;DHT22;30023;48.832;9.422;2022-07-04T09:22:33;24.10;17.80
4787;DHT22;30023;48.832;9.422;2022-07-04T09:25:01;24.30;1.00
4787;DHT22;30023;48.832;9.422;2022-07-04T09:27:05;24.50;34.70
4787;DHT22;30023;48.832;9.422;2022-07-04T09:29:07;24.70;99.90
4787;DHT22;30023;48.832;9.422;2022-07-04T09:31:29;25.10;63.00
4787;DHT22;30023;48.832;9.422;2022-07-04T09:33:53;25.20;1.00
4787;DHT22;30023;48.832;9.422;2022-07-04T09:35:55;25.40;99.90
4787;DHT22;30023;48.832;9.422;2022-07-04T09:37:59;25.90;81.60
4787;DHT22;30023;48.832;9.422;2022-07-04T09:40:03;26.40;99.90
4787;DHT22;30023;48.832;9.422;2022-07-04T09:42:05;26.40;1.00
4787;DHT22;30023;48.832;9.422;2022-07-04T09:44:08;26.80;96.30
4787;DHT22;30023;48.832;9.422;2022-07-04T09:46:10;27.90;82.80
4787;DHT22;30023;48.832;9.422;2022-07-04T09:48:12;28.80;1.00
4787;DHT22;30023;48.832;9.422;2022-07-04T09:50:15;29.90;99.90
4787;DHT22;30023;48.832;9.422;2022-07-04T09:52:18;29.90;99.90
4787;DHT22;30023;48.832;9.422;2022-07-04T09:54:28;29.60;99.90
4787;DHT22;30023;48.832;9.422;2022-07-04T09:56:43;29.80;99.90
4787;DHT22;30023;48.832;9.422;2022-07-04T09:58:56;30.30;99.90
4787;DHT22;30023;48.832;9.422;2022-07-04T10:01:01;31.40;99.90
4787;DHT22;30023;48.832;9.422;2022-07-04T10:05:28;32.30;52.00
4787;DHT22;30023;48.832;9.422;2022-07-04T10:09:37;32.20;1.00
4787;DHT22;30023;48.832;9.422;2022-07-04T10:11:41;30.90;1.00
4787;DHT22;30023;48.832;9.422;2022-07-04T10:13:43;30.50;1.00
4787;DHT22;30023;48.832;9.422;2022-07-04T10:15:45;30.50;1.00
4787;DHT22;30023;48.832;9.422;2022-07-04T10:17:47;30.30;1.00
4787;DHT22;30023;48.832;9.422;2022-07-04T10:19:49;30.90;1.00
4787;DHT22;30023;48.832;9.422;2022-07-04T10:21:54;31.20;1.00
4787;DHT22;30023;48.832;9.422;2022-07-04T10:23:56;30.90;1.00
4787;DHT22;30023;48.832;9.422;2022-07-04T10:25:58;30.90;1.00
4787;DHT22;30023;48.832;9.422;2022-07-04T10:28:00;31.30;1.00
4787;DHT22;30023;48.832;9.422;2022-07-04T10:30:04;31.30;1.00
4787;DHT22;30023;48.832;9.422;2022-07-04T10:32:06;31.30;1.00
4787;DHT22;30023;48.832;9.422;2022-07-04T10:34:10;32.10;1.00
4787;DHT22;30023;48.832;9.422;2022-07-04T10:36:17;32.70;1.00
4787;DHT22;30023;48.832;9.422;2022-07-04T10:38:25;33.50;1.00
4787;DHT22;30023;48.832;9.422;2022-07-04T10:40:47;33.80;1.00
4787;DHT22;30023;48.832;9.422;2022-07-04T10:42:49;34.30;1.00
4787;DHT22;30023;48.832;9.422;2022-07-04T10:44:52;34.20;1.00
4787;DHT22;30023;48.832;9.422;2022-07-04T10:46:54;34.40;1.00
4787;DHT22;30023;48.832;9.422;2022-07-04T10:49:08;34.20;1.00
4787;DHT22;30023;48.832;9.422;2022-07-04T10:54:20;33.90;1.00
4787;DHT22;30023;48.832;9.422;2022-07-04T10:58:40;34.50;1.00
4787;DHT22;30023;48.832;9.422;2022-07-04T11:01:11;34.30;1.00
4787;DHT22;30023;48.832;9.422;2022-07-04T11:03:17;33.90;1.00
4787;DHT22;30023;48.832;9.422;2022-07-04T11:05:31;33.90;1.00
4787;DHT22;30023;48.832;9.422;2022-07-04T11:09:37;32.90;1.00
4787;DHT22;30023;48.832;9.422;2022-07-04T11:16:52;32.50;1.00
4787;DHT22;30023;48.832;9.422;2022-07-04T11:18:55;32.70;1.00
4787;DHT22;30023;48.832;9.422;2022-07-04T11:20:56;32.60;1.00
4787;DHT22;30023;48.832;9.422;2022-07-04T11:23:11;32.50;1.00
4787;DHT22;30023;48.832;9.422;2022-07-04T11:25:14;32.20;1.00
4787;DHT22;30023;48.832;9.422;2022-07-04T11:27:15;32.00;1.00
4787;DHT22;30023;48.832;9.422;2022-07-04T11:29:17;31.50;1.00
4787;DHT22;30023;48.832;9.422;2022-07-04T11:31:19;31.80;1.00
4787;DHT22;30023;48.832;9.422;2022-07-04T11:33:30;32.30;1.00
4787;DHT22;30023;48.832;9.422;2022-07-04T11:35:32;32.00;1.00
4787;DHT22;30023;48.832;9.422;2022-07-04T11:37:34;32.40;1.00
4787;DHT22;30023;48.832;9.422;2022-07-04T11:39:35;32.40;1.00
4787;DHT22;30023;48.832;9.422;2022-07-04T11:41:40;32.10;1.00
4787;DHT22;30023;48.832;9.422;2022-07-04T11:44:05;31.80;1.00
4787;DHT22;30023;48.832;9.422;2022-07-04T11:46:25;31.80;1.00
4787;DHT22;30023;48.832;9.422;2022-07-04T11:48:28;32.40;1.00
4787;DHT22;30023;48.832;9.422;2022-07-04T11:50:29;32.50;1.00
4787;DHT22;30023;48.832;9.422;2022-07-04T11:54:59;32.30;1.00
4787;DHT22;30023;48.832;9.422;2022-07-04T11:57:24;32.20;1.00
4787;DHT22;30023;48.832;9.422;2022-07-04T11:59:26;32.00;1.00
4787;DHT22;30023;48.832;9.422;2022-07-04T12:01:30;32.00;1.00
4787;DHT22;30023;48.832;9.422;2022-07-04T12:03:33;31.90;1.00
4787;DHT22;30023;48.832;9.422;2022-07-04T12:05:35;32.30;1.00
4787;DHT22;30023;48.832;9.422;2022-07-04T12:07:41;32.30;1.00
4787;DHT22;30023;48.832;9.422;2022-07-04T12:09:44;32.20;1.00
4787;DHT22;30023;48.832;9.422;2022-07-04T12:11:59;32.60;1.00
4787;DHT22;30023;48.832;9.422;2022-07-04T12:14:13;32.80;1.00
4787;DHT22;30023;48.832;9.422;2022-07-04T12:16:16;32.30;1.00
4787;DHT22;30023;48.832;9.422;2022-07-04T12:18:23;31.30;1.00
4787;DHT22;30023;48.832;9.422;2022-07-04T12:20:26;31.50;1.00
4787;DHT22;30023;48.832;9.422;2022-07-04T12:22:29;32.00;1.00
4787;DHT22;30023;48.832;9.422;2022-07-04T12:24:43;32.20;1.00
4787;DHT22;30023;48.832;9.422;2022-07-04T12:26:48;31.40;1.00
4787;DHT22;30023;48.832;9.422;2022-07-04T12:28:50;31.60;1.00
4787;DHT22;30023;48.832;9.422;2022-07-04T12:30:55;32.20;1.00
4787;DHT22;30023;48.832;9.422;2022-07-04T12:33:00;32.00;1.00
4787;DHT22;30023;48.832;9.422;2022-07-04T12:35:02;31.80;1.00
4787;DHT22;30023;48.832;9.422;2022-07-04T12:37:15;32.10;1.00
4787;DHT22;30023;48.832;9.422;2022-07-04T12:39:31;32.00;1.00
4787;DHT22;30023;48.832;9.422;2022-07-04T12:41:33;31.50;1.00
4787;DHT22;30023;48.832;9.422;2022-07-04T12:45:45;31.60;1.00
4787;DHT22;30023;48.832;9.422;2022-07-04T12:47:50;31.90;1.00
4787;DHT22;30023;48.832;9.422;2022-07-04T12:49:53;31.80;1.00
4787;DHT22;30023;48.832;9.422;2022-07-04T12:52:09;32.00;1.00
4787;DHT22;30023;48.832;9.422;2022-07-04T12:54:12;31.80;1.00
4787;DHT22;30023;48.832;9.422;2022-07-04T12:58:34;32.50;1.00
4787;DHT22;30023;48.832;9.422;2022-07-04T13:00:37;32.10;1.00
4787;DHT22;30023;48.832;9.422;2022-07-04T13:02:39;32.30;1.00
4787;DHT22;30023;48.832;9.422;2022-07-04T13:04:41;32.30;1.00
4787;DHT22;30023;48.832;9.422;2022-07-04T13:06:43;32.70;1.00
4787;DHT22;30023;48.832;9.422;2022-07-04T13:08:45;33.40;1.00
4787;DHT22;30023;48.832;9.422;2022-07-04T13:10:47;32.70;1.00
4787;DHT22;30023;48.832;9.422;2022-07-04T13:12:49;31.60;1.00
4787;DHT22;30023;48.832;9.422;2022-07-04T13:14:52;31.50;1.00
4787;DHT22;30023;48.832;9.422;2022-07-04T13:16:54;31.80;1.00
4787;DHT22;30023;48.832;9.422;2022-07-04T13:18:56;32.30;1.00
4787;DHT22;30023;48.832;9.422;2022-07-04T13:20:58;32.50;1.00
4787;DHT22;30023;48.832;9.422;2022-07-04T13:23:00;32.90;1.00
4787;DHT22;30023;48.832;9.422;2022-07-04T13:25:01;32.90;1.00
4787;DHT22;30023;48.832;9.422;2022-07-04T13:27:05;33.40;1.00
4787;DHT22;30023;48.832;9.422;2022-07-04T13:29:06;33.00;1.00
4787;DHT22;30023;48.832;9.422;2022-07-04T13:31:14;32.60;1.00
4787;DHT22;30023;48.832;9.422;2022-07-04T13:33:16;32.50;1.00
4787;DHT22;30023;48.832;9.422;2022-07-04T13:35:18;31.90;1.00
4787;DHT22;30023;48.832;9.422;2022-07-04T13:37:20;32.10;1.00
4787;DHT22;30023;48.832;9.422;2022-07-04T13:39:23;31.20;1.00
4787;DHT22;30023;48.832;9.422;2022-07-04T13:41:44;30.10;1.00
4787;DHT22;30023;48.832;9.422;2022-07-04T13:43:46;30.10;1.00
4787;DHT22;30023;48.832;9.422;2022-07-04T13:45:48;30.00;1.00